Time;durP1;ratioP1;P1;durP2;ratioP2;P2;SDS_P1;SDS_P2;PMS_P1;PMS_P2;Temp;Humidity;BMP_temperature;BMP_pressure;BME280_temperature;BME280_humidity;BME280_pressure;Samples;Min_cycle;Max_cycle;Signal;HPM_P1;HPM_P2
2021/07/26 00:00:10;;;;;;;13.52;10.85;;;21.70;83.60;;;;;;4990279;28;20064;-64
2021/07/26 00:02:36;;;;;;;8.00;7.20;;;21.60;84.10;;;;;;4989008;28;20095;-64
2021/07/26 00:05:01;;;;;;;8.68;7.47;;;21.50;86.30;;;;;;4991731;28;20125;-64
2021/07/26 00:07:28;;;;;;;14.57;8.88;;;21.60;87.10;;;;;;4989964;28;20133;-64
2021/07/26 00:09:54;;;;;;;11.95;9.27;;;21.70;86.70;;;;;;4976112;28;20099;-64
2021/07/26 00:12:20;;;;;;;8.60;7.07;;;21.90;85.50;;;;;;4990716;28;20100;-64
2021/07/26 00:14:45;;;;;;;9.13;7.78;;;22.00;86.10;;;;;;4991168;28;20799;-64
2021/07/26 00:17:11;;;;;;;11.35;8.98;;;22.10;86.00;;;;;;4989187;28;20108;-64
2021/07/26 00:19:37;;;;;;;7.35;6.57;;;22.20;84.90;;;;;;4990703;28;20121;-63
2021/07/26 00:22:03;;;;;;;7.75;6.85;;;22.30;85.40;;;;;;4974532;28;20473;-63
2021/07/26 00:24:29;;;;;;;8.52;7.70;;;22.40;84.90;;;;;;4990448;28;20041;-63
2021/07/26 00:26:55;;;;;;;9.07;7.88;;;22.40;84.70;;;;;;4990253;28;20050;-63
2021/07/26 00:29:20;;;;;;;9.45;6.63;;;22.40;84.40;;;;;;4990420;28;20641;-63
2021/07/26 00:31:46;;;;;;;10.00;8.20;;;22.50;84.60;;;;;;4990679;28;20160;-63
2021/07/26 00:34:19;;;;;;;8.73;7.05;;;22.50;84.30;;;;;;4976268;28;20037;-63
2021/07/26 00:36:51;;;;;;;7.13;6.05;;;22.50;84.10;;;;;;4980405;28;20448;-63
2021/07/26 00:39:19;;;;;;;11.50;7.93;;;22.50;84.50;;;;;;4990852;28;20026;-64
2021/07/26 00:41:47;;;;;;;14.68;9.60;;;22.50;84.60;;;;;;4991845;28;20076;-63
2021/07/26 00:44:13;;;;;;;10.20;7.88;;;22.50;84.10;;;;;;4990404;28;20502;-63
2021/07/26 00:46:39;;;;;;;7.68;6.32;;;22.40;84.40;;;;;;4990980;28;20034;-64
2021/07/26 00:49:08;;;;;;;8.77;7.53;;;22.40;85.00;;;;;;4991240;28;20474;-63
2021/07/26 00:51:37;;;;;;;17.10;9.45;;;22.40;85.00;;;;;;4992447;28;20046;-63
2021/07/26 00:54:03;;;;;;;17.83;12.05;;;22.40;84.10;;;;;;4990864;28;20042;-63
2021/07/26 00:56:29;;;;;;;15.05;12.18;;;22.40;83.80;;;;;;4991107;28;20035;-63
2021/07/26 00:58:55;;;;;;;18.85;12.30;;;22.30;83.60;;;;;;4992778;28;20041;-63
2021/07/26 01:01:21;;;;;;;15.35;11.30;;;22.10;83.80;;;;;;4992302;28;20045;-64
2021/07/26 01:03:47;;;;;;;13.65;9.60;;;21.90;84.30;;;;;;4977275;28;20034;-63
2021/07/26 01:06:13;;;;;;;12.85;8.25;;;21.80;85.10;;;;;;4990420;28;20117;-64
2021/07/26 01:08:40;;;;;;;14.60;9.63;;;21.70;86.50;;;;;;4990029;28;20399;-64
2021/07/26 01:11:06;;;;;;;12.45;10.10;;;21.70;86.30;;;;;;4991260;28;20041;-64
2021/07/26 01:13:32;;;;;;;12.27;7.75;;;21.70;86.00;;;;;;4989845;28;20042;-64
2021/07/26 01:15:59;;;;;;;16.02;10.52;;;21.60;87.50;;;;;;4990905;28;20053;-64
2021/07/26 01:18:25;;;;;;;9.30;6.82;;;21.70;86.30;;;;;;4974218;28;20037;-64
2021/07/26 01:20:53;;;;;;;10.60;8.70;;;21.70;87.20;;;;;;4990945;28;20042;-64
2021/07/26 01:23:19;;;;;;;9.38;6.38;;;21.80;86.80;;;;;;4990194;28;20041;-63
2021/07/26 01:25:45;;;;;;;7.43;6.28;;;21.80;87.10;;;;;;4991011;28;20058;-64
2021/07/26 01:28:16;;;;;;;7.03;6.28;;;21.90;87.20;;;;;;4990270;28;20038;-64
2021/07/26 01:30:43;;;;;;;9.23;6.35;;;22.00;87.00;;;;;;4990504;28;20045;-64
2021/07/26 01:33:10;;;;;;;8.52;7.43;;;22.10;87.10;;;;;;4990419;28;20518;-63
2021/07/26 01:35:37;;;;;;;8.40;6.93;;;22.20;86.50;;;;;;4990001;28;20042;-64
2021/07/26 01:38:03;;;;;;;8.25;7.32;;;22.30;86.10;;;;;;4990161;28;20041;-64
2021/07/26 01:40:29;;;;;;;7.75;6.82;;;22.40;85.90;;;;;;4990764;28;20120;-64
2021/07/26 01:43:02;;;;;;;8.90;7.20;;;22.30;85.70;;;;;;4989774;28;20122;-64
2021/07/26 01:45:30;;;;;;;9.48;6.53;;;22.40;85.60;;;;;;4990681;28;20090;-64
2021/07/26 01:48:22;;;;;;;9.07;7.72;;;22.40;85.40;;;;;;4993242;28;20082;-64
2021/07/26 01:50:53;;;;;;;8.57;6.63;;;22.50;85.10;;;;;;4982222;28;20060;-64
2021/07/26 01:53:19;;;;;;;8.25;6.70;;;22.50;85.10;;;;;;4993774;28;20037;-64
2021/07/26 01:55:45;;;;;;;7.20;6.13;;;22.50;84.90;;;;;;4978652;28;20886;-64
2021/07/26 01:58:11;;;;;;;7.85;6.03;;;22.60;84.70;;;;;;4992673;28;20942;-63
2021/07/26 02:00:37;;;;;;;7.13;6.43;;;22.60;84.60;;;;;;4993493;28;20038;-64
2021/07/26 02:03:03;;;;;;;8.50;6.30;;;22.60;84.50;;;;;;4980235;28;20045;-64
2021/07/26 02:05:29;;;;;;;8.45;6.53;;;22.70;84.20;;;;;;4994699;28;20035;-64
2021/07/26 02:07:54;;;;;;;7.20;6.50;;;22.70;84.00;;;;;;4993043;28;20061;-65
2021/07/26 02:10:21;;;;;;;8.85;6.65;;;22.70;84.00;;;;;;4994730;28;20678;-64
2021/07/26 02:12:47;;;;;;;7.78;6.72;;;22.70;84.00;;;;;;4994326;28;20183;-64
2021/07/26 02:15:13;;;;;;;8.70;7.63;;;22.80;84.00;;;;;;4993699;28;20125;-64
2021/07/26 02:17:39;;;;;;;9.68;8.63;;;22.80;83.90;;;;;;4994277;28;20125;-64
2021/07/26 02:20:05;;;;;;;7.45;6.75;;;22.80;83.50;;;;;;4994200;28;20044;-63
2021/07/26 02:22:31;;;;;;;13.77;10.52;;;22.60;84.20;;;;;;4992448;28;20125;-63
2021/07/26 02:24:58;;;;;;;8.32;7.22;;;22.50;84.10;;;;;;4994006;28;20088;-63
2021/07/26 02:27:24;;;;;;;11.10;7.53;;;22.40;84.80;;;;;;4994527;28;20045;-63
2021/07/26 02:29:50;;;;;;;8.85;7.97;;;22.30;85.40;;;;;;4993301;28;20033;-63
2021/07/26 02:32:15;;;;;;;12.68;8.98;;;22.30;85.50;;;;;;4994911;28;20049;-63
2021/07/26 02:34:41;;;;;;;18.83;15.27;;;22.30;86.00;;;;;;4977972;28;20057;-63
2021/07/26 02:37:07;;;;;;;20.23;17.52;;;22.20;84.70;;;;;;4993393;28;20872;-64
2021/07/26 02:39:33;;;;;;;25.35;17.77;;;21.90;84.50;;;;;;4976364;28;20049;-63
2021/07/26 02:41:58;;;;;;;18.02;14.68;;;21.60;85.20;;;;;;4993651;28;20446;-63
2021/07/26 02:44:24;;;;;;;21.67;16.58;;;21.30;86.60;;;;;;4993735;28;20128;-63
2021/07/26 02:46:50;;;;;;;17.88;15.25;;;21.10;87.20;;;;;;4992075;28;20117;-63
2021/07/26 02:49:16;;;;;;;20.15;17.92;;;20.90;88.20;;;;;;4978648;28;20038;-63
2021/07/26 02:51:42;;;;;;;22.88;18.92;;;20.90;88.40;;;;;;4993363;28;20044;-63
2021/07/26 02:54:08;;;;;;;25.75;18.90;;;20.70;88.70;;;;;;4992849;28;20473;-63
2021/07/26 02:56:34;;;;;;;24.45;18.05;;;20.60;89.70;;;;;;4992106;28;20046;-63
2021/07/26 02:58:59;;;;;;;20.17;17.58;;;20.50;90.00;;;;;;4992093;28;20105;-63
2021/07/26 03:01:25;;;;;;;18.35;14.48;;;20.40;90.20;;;;;;4991907;28;20038;-63
2021/07/26 03:03:51;;;;;;;14.93;11.10;;;20.40;90.50;;;;;;4989326;28;20626;-63
2021/07/26 03:06:18;;;;;;;12.77;10.45;;;20.40;90.80;;;;;;4990680;28;20125;-63
2021/07/26 03:08:44;;;;;;;14.90;12.88;;;20.50;91.10;;;;;;4988616;28;20030;-63
2021/07/26 03:11:11;;;;;;;19.38;16.30;;;20.60;91.00;;;;;;4990046;28;20586;-62
2021/07/26 03:13:38;;;;;;;30.55;20.30;;;20.80;90.40;;;;;;4991291;28;20095;-63
2021/07/26 03:16:05;;;;;;;24.77;20.13;;;20.80;90.00;;;;;;4989777;28;20042;-63
2021/07/26 03:18:31;;;;;;;14.70;12.52;;;20.70;90.20;;;;;;4991539;28;20129;-63
2021/07/26 03:20:57;;;;;;;25.92;20.85;;;20.70;90.30;;;;;;4992078;28;20779;-63
2021/07/26 03:23:23;;;;;;;14.40;11.57;;;20.60;90.20;;;;;;4992084;28;20042;-63
2021/07/26 03:25:48;;;;;;;11.50;9.50;;;20.50;90.80;;;;;;4990589;28;20128;-63
2021/07/26 03:28:14;;;;;;;16.15;14.23;;;20.50;91.10;;;;;;4990510;28;20046;-63
2021/07/26 03:30:40;;;;;;;18.77;13.70;;;20.60;91.00;;;;;;4976898;28;20185;-63
2021/07/26 03:33:08;;;;;;;23.98;18.85;;;20.80;90.70;;;;;;4992922;28;20041;-63
2021/07/26 03:35:34;;;;;;;21.38;16.38;;;20.80;90.10;;;;;;4991594;28;20127;-63
2021/07/26 03:38:00;;;;;;;30.80;20.88;;;20.70;90.10;;;;;;4991820;28;20041;-63
2021/07/26 03:40:27;;;;;;;26.02;20.52;;;20.50;89.90;;;;;;4992209;28;20045;-63
2021/07/26 03:42:52;;;;;;;13.43;12.05;;;20.40;90.10;;;;;;4992279;28;20127;-63
2021/07/26 03:45:21;;;;;;;19.98;16.50;;;20.30;90.60;;;;;;4991559;28;20168;-63
2021/07/26 03:47:47;;;;;;;17.13;12.45;;;20.40;90.60;;;;;;4992403;28;20037;-63
2021/07/26 03:50:14;;;;;;;11.10;9.48;;;20.40;90.70;;;;;;4991798;28;20070;-63
2021/07/26 03:52:50;;;;;;;25.23;19.23;;;20.50;91.00;;;;;;4990783;28;20046;-63
2021/07/26 03:55:18;;;;;;;16.05;11.27;;;20.70;90.00;;;;;;4975673;28;20129;-63
2021/07/26 03:57:45;;;;;;;26.83;18.73;;;20.60;90.30;;;;;;4992156;28;20043;-63
2021/07/26 04:00:12;;;;;;;29.80;20.15;;;20.50;90.00;;;;;;4991852;28;20470;-63
2021/07/26 04:02:39;;;;;;;17.33;13.40;;;20.30;89.80;;;;;;4993219;28;20105;-63
2021/07/26 04:05:09;;;;;;;27.63;18.33;;;20.30;90.30;;;;;;4998393;28;20053;-63
2021/07/26 04:07:37;;;;;;;30.42;20.42;;;20.30;90.10;;;;;;4997491;28;20053;-63
2021/07/26 04:10:07;;;;;;;20.98;15.05;;;20.30;89.80;;;;;;4995056;28;20976;-63
2021/07/26 04:12:34;;;;;;;10.63;8.23;;;20.40;90.10;;;;;;4997850;28;20069;-63
2021/07/26 04:15:07;;;;;;;10.20;8.15;;;20.60;90.60;;;;;;5000161;28;20041;-63
2021/07/26 04:17:34;;;;;;;11.23;7.22;;;20.90;90.60;;;;;;4981646;28;20921;-63
2021/07/26 04:20:00;;;;;;;9.35;7.15;;;21.10;90.30;;;;;;4997854;28;20041;-63
2021/07/26 04:22:27;;;;;;;14.57;7.70;;;21.40;90.10;;;;;;4998250;28;20129;-63
2021/07/26 04:24:52;;;;;;;13.95;7.20;;;21.60;89.70;;;;;;4998717;28;20117;-63
2021/07/26 04:27:18;;;;;;;10.20;8.25;;;21.80;88.60;;;;;;4998376;28;20502;-63
2021/07/26 04:29:44;;;;;;;14.98;11.02;;;21.90;87.80;;;;;;4998547;28;20137;-64
2021/07/26 04:32:10;;;;;;;25.60;19.63;;;21.90;86.90;;;;;;4998531;28;20038;-63
2021/07/26 04:34:36;;;;;;;32.38;25.02;;;21.70;86.10;;;;;;5000212;28;20056;-63
2021/07/26 04:37:02;;;;;;;37.13;26.63;;;21.30;85.80;;;;;;4997955;28;20048;-64
2021/07/26 04:39:28;;;;;;;32.28;23.67;;;20.90;86.50;;;;;;4979434;28;20505;-64
2021/07/26 04:41:54;;;;;;;25.65;19.83;;;20.60;87.70;;;;;;4982429;28;20070;-63
2021/07/26 04:44:19;;;;;;;30.13;22.35;;;20.40;89.10;;;;;;4998970;28;20041;-64
2021/07/26 04:46:45;;;;;;;17.63;12.50;;;20.30;89.50;;;;;;4980331;28;20031;-64
2021/07/26 04:49:13;;;;;;;31.55;25.08;;;20.30;90.30;;;;;;4997736;28;20038;-64
2021/07/26 04:51:39;;;;;;;32.55;25.75;;;20.30;90.10;;;;;;4998245;28;20482;-64
2021/07/26 04:54:05;;;;;;;26.33;21.58;;;20.20;89.90;;;;;;4999868;28;22370;-64
2021/07/26 04:56:36;;;;;;;34.75;24.38;;;20.00;90.50;;;;;;4996864;28;20121;-64
2021/07/26 04:59:01;;;;;;;30.42;23.98;;;19.90;90.60;;;;;;4997351;28;20401;-64
2021/07/26 05:01:28;;;;;;;34.08;27.58;;;19.90;90.60;;;;;;4986047;28;20038;-64
2021/07/26 05:03:54;;;;;;;34.22;27.55;;;19.80;90.60;;;;;;4998438;28;20042;-64
2021/07/26 05:06:20;;;;;;;44.78;31.00;;;19.70;90.80;;;;;;4997685;28;20556;-64
2021/07/26 05:08:46;;;;;;;38.58;30.02;;;19.60;91.00;;;;;;4997218;28;20440;-63
2021/07/26 05:11:11;;;;;;;41.03;31.13;;;19.40;91.10;;;;;;4997875;28;20052;-63
2021/07/26 05:13:37;;;;;;;40.47;31.17;;;19.30;91.40;;;;;;4999222;28;20042;-63
2021/07/26 05:16:03;;;;;;;45.80;33.83;;;19.20;91.70;;;;;;4980169;28;20042;-63
2021/07/26 05:18:29;;;;;;;43.53;33.03;;;19.10;91.80;;;;;;4997412;28;20349;-63
2021/07/26 05:20:54;;;;;;;44.10;33.28;;;19.20;92.00;;;;;;4997060;28;20046;-63
2021/07/26 05:23:20;;;;;;;43.05;32.47;;;19.20;92.20;;;;;;4998910;28;20045;-63
2021/07/26 05:25:47;;;;;;;40.38;31.25;;;19.10;92.30;;;;;;4997777;28;20038;-63
2021/07/26 05:28:13;;;;;;;41.83;32.72;;;19.10;92.40;;;;;;4996488;28;20042;-63
2021/07/26 05:30:39;;;;;;;41.45;31.95;;;19.10;92.60;;;;;;4996928;28;20038;-64
2021/07/26 05:33:05;;;;;;;38.38;31.08;;;19.20;92.60;;;;;;4999000;28;20044;-64
2021/07/26 05:35:31;;;;;;;38.35;30.15;;;19.20;92.70;;;;;;4997032;28;20121;-64
2021/07/26 05:38:00;;;;;;;38.80;29.60;;;19.30;92.70;;;;;;4996537;28;20418;-63
2021/07/26 05:40:26;;;;;;;39.33;31.15;;;19.40;92.70;;;;;;4996967;28;20141;-64
2021/07/26 05:42:52;;;;;;;34.63;29.48;;;19.40;92.60;;;;;;4997649;28;20050;-64
2021/07/26 05:45:17;;;;;;;33.20;28.15;;;19.40;92.60;;;;;;4996961;28;20148;-64
2021/07/26 05:47:49;;;;;;;33.50;29.77;;;19.50;92.60;;;;;;4997619;28;20046;-64
2021/07/26 05:50:15;;;;;;;34.50;28.85;;;19.60;92.60;;;;;;4998942;28;20099;-63
2021/07/26 05:52:41;;;;;;;37.90;29.20;;;19.60;92.70;;;;;;4998378;28;20452;-64
2021/07/26 05:55:07;;;;;;;29.20;26.05;;;19.60;92.70;;;;;;4996751;28;20039;-63
2021/07/26 05:57:36;;;;;;;28.88;25.73;;;19.70;92.60;;;;;;4984058;28;20051;-63
2021/07/26 06:00:10;;;;;;;30.15;26.92;;;19.80;92.50;;;;;;4985138;28;20038;-63
2021/07/26 06:02:35;;;;;;;30.63;26.70;;;19.80;92.30;;;;;;4997302;28;20224;-63
2021/07/26 06:05:01;;;;;;;29.65;24.40;;;19.90;92.40;;;;;;4996802;28;20511;-63
2021/07/26 06:07:27;;;;;;;28.92;25.50;;;19.90;92.40;;;;;;4997184;28;20046;-63
2021/07/26 06:09:53;;;;;;;27.05;24.20;;;19.90;92.30;;;;;;4980641;28;20137;-63
2021/07/26 06:12:19;;;;;;;31.23;24.65;;;19.90;92.30;;;;;;4997649;28;20410;-62
2021/07/26 06:14:44;;;;;;;28.38;24.48;;;19.90;92.30;;;;;;4996630;28;20034;-62
2021/07/26 06:17:10;;;;;;;29.50;25.00;;;20.10;92.20;;;;;;4996748;28;20041;-62
2021/07/26 06:19:36;;;;;;;29.58;25.00;;;20.10;92.20;;;;;;4996158;28;20038;-63
2021/07/26 06:22:02;;;;;;;17.85;15.43;;;20.20;92.10;;;;;;4997311;28;20038;-63
2021/07/26 06:24:28;;;;;;;27.88;23.15;;;20.30;92.00;;;;;;4995807;28;20042;-63
2021/07/26 06:26:57;;;;;;;26.63;23.63;;;20.50;91.80;;;;;;4979913;28;20042;-67
2021/07/26 06:29:26;;;;;;;18.95;16.95;;;20.50;91.60;;;;;;4996216;28;20045;-65
2021/07/26 06:31:52;;;;;;;25.48;22.20;;;20.60;91.70;;;;;;4995080;28;20684;-61
2021/07/26 06:34:18;;;;;;;27.02;19.35;;;20.70;91.60;;;;;;4986464;28;20465;-60
2021/07/26 06:36:44;;;;;;;26.50;21.60;;;20.70;91.50;;;;;;4998901;28;20034;-66
2021/07/26 06:39:11;;;;;;;24.73;19.30;;;20.80;91.50;;;;;;4988372;28;20038;-63
2021/07/26 06:41:37;;;;;;;24.90;18.35;;;20.80;91.20;;;;;;5000131;28;20103;-65
2021/07/26 06:44:03;;;;;;;19.33;16.73;;;20.80;90.90;;;;;;4999596;28;20059;-65
2021/07/26 06:46:29;;;;;;;19.83;17.60;;;20.80;90.80;;;;;;4999221;28;20038;-65
2021/07/26 06:48:55;;;;;;;15.88;14.13;;;20.80;90.80;;;;;;5000271;28;20106;-65
2021/07/26 06:51:22;;;;;;;15.65;12.93;;;20.80;90.90;;;;;;4998512;28;20049;-66
2021/07/26 06:53:48;;;;;;;17.58;14.05;;;21.00;90.80;;;;;;4987750;28;20052;-65
2021/07/26 06:56:14;;;;;;;19.20;14.77;;;21.20;90.60;;;;;;4999403;28;20034;-65
2021/07/26 06:58:44;;;;;;;26.73;16.02;;;21.30;90.30;;;;;;5000465;28;20042;-65
2021/07/26 07:01:11;;;;;;;25.02;16.45;;;21.50;90.10;;;;;;4998690;28;20116;-65
2021/07/26 07:03:42;;;;;;;17.77;14.90;;;21.70;90.00;;;;;;5000679;28;20399;-65
2021/07/26 07:06:12;;;;;;;14.23;11.82;;;22.00;88.80;;;;;;5001100;28;20042;-65
2021/07/26 07:08:39;;;;;;;15.45;13.85;;;22.20;88.10;;;;;;4999312;28;20506;-65
2021/07/26 07:11:13;;;;;;;18.20;13.55;;;22.50;87.00;;;;;;4999639;28;20112;-65
2021/07/26 07:13:41;;;;;;;14.85;13.30;;;22.90;86.40;;;;;;5000364;28;20049;-65
2021/07/26 07:16:22;;;;;;;15.43;13.13;;;22.90;85.60;;;;;;4999952;28;20064;-66
2021/07/26 07:18:52;;;;;;;20.25;11.52;;;23.00;85.40;;;;;;4999692;28;20046;-66
2021/07/26 07:21:20;;;;;;;12.90;9.00;;;23.20;85.10;;;;;;4999460;28;20409;-66
2021/07/26 07:23:47;;;;;;;15.05;11.38;;;23.40;84.40;;;;;;4982507;28;20109;-65
2021/07/26 07:26:13;;;;;;;10.65;7.45;;;23.70;83.50;;;;;;5000967;28;20038;-65
2021/07/26 07:28:40;;;;;;;13.05;7.47;;;24.00;82.50;;;;;;4999193;28;20030;-66
2021/07/26 07:31:07;;;;;;;12.07;7.22;;;24.40;81.20;;;;;;5000233;28;20088;-66
2021/07/26 07:33:33;;;;;;;7.65;5.90;;;24.90;79.50;;;;;;4999172;28;20045;-66
2021/07/26 07:36:03;;;;;;;10.52;6.82;;;25.20;77.60;;;;;;5000260;28;20473;-67
2021/07/26 07:38:30;;;;;;;7.00;5.13;;;25.40;76.80;;;;;;4998870;28;20129;-68
2021/07/26 07:40:58;;;;;;;7.53;5.80;;;25.50;75.60;;;;;;4998362;28;20057;-62
2021/07/26 07:43:25;;;;;;;7.18;5.80;;;25.40;74.50;;;;;;4981041;28;20042;-62
2021/07/26 07:45:51;;;;;;;9.82;6.28;;;25.40;74.00;;;;;;4980018;28;20050;-62
2021/07/26 07:48:18;;;;;;;6.65;5.30;;;25.50;74.20;;;;;;4999415;28;20150;-62
2021/07/26 07:50:44;;;;;;;6.22;5.40;;;25.60;73.90;;;;;;4981689;28;20034;-62
2021/07/26 07:53:10;;;;;;;6.07;5.10;;;25.70;73.50;;;;;;4996031;28;20074;-63
2021/07/26 07:55:36;;;;;;;5.30;4.35;;;25.90;72.70;;;;;;4998242;28;20053;-63
2021/07/26 07:58:03;;;;;;;8.35;6.50;;;26.00;73.00;;;;;;4999828;28;20065;-63
2021/07/26 08:00:29;;;;;;;10.07;6.28;;;26.20;72.90;;;;;;4986783;28;20037;-63
2021/07/26 08:02:56;;;;;;;4.70;4.30;;;26.30;72.50;;;;;;4997403;28;20045;-63
2021/07/26 08:05:21;;;;;;;9.60;4.80;;;26.40;72.90;;;;;;4997235;28;20042;-63
2021/07/26 08:07:47;;;;;;;6.57;3.85;;;26.50;72.50;;;;;;4979426;28;20418;-63
2021/07/26 08:10:14;;;;;;;4.97;3.40;;;26.60;70.90;;;;;;4998880;28;20762;-63
2021/07/26 08:12:41;;;;;;;4.28;3.88;;;26.90;69.80;;;;;;4998161;28;20493;-63
2021/07/26 08:15:07;;;;;;;6.05;3.78;;;27.10;68.80;;;;;;4997138;28;20501;-64
2021/07/26 08:17:33;;;;;;;3.78;2.80;;;27.10;67.60;;;;;;4985146;28;20042;-64
2021/07/26 08:19:59;;;;;;;5.07;2.88;;;27.20;67.70;;;;;;5000498;28;20049;-63
2021/07/26 08:22:25;;;;;;;6.22;3.25;;;27.30;67.10;;;;;;4980516;28;20486;-64
2021/07/26 08:24:50;;;;;;;3.25;2.75;;;27.50;66.10;;;;;;4997516;28;20041;-64
2021/07/26 08:27:16;;;;;;;4.97;3.70;;;27.60;65.70;;;;;;4998160;28;20127;-63
2021/07/26 08:29:42;;;;;;;17.65;14.45;;;27.60;64.30;;;;;;4998751;28;20085;-64
2021/07/26 08:32:08;;;;;;;3.42;3.00;;;27.50;64.20;;;;;;4996999;28;20034;-64
2021/07/26 08:34:33;;;;;;;4.68;2.97;;;27.50;65.00;;;;;;4998661;28;20088;-64
2021/07/26 08:37:01;;;;;;;4.25;2.75;;;27.60;64.00;;;;;;4999476;28;20038;-64
2021/07/26 08:39:28;;;;;;;5.45;2.67;;;27.70;63.90;;;;;;4996978;28;20149;-64
2021/07/26 08:41:53;;;;;;;4.43;2.40;;;27.70;63.10;;;;;;4998062;28;20042;-62
2021/07/26 08:44:19;;;;;;;2.83;2.30;;;27.50;63.00;;;;;;4998536;28;20509;-65
2021/07/26 08:46:46;;;;;;;3.75;2.90;;;27.20;63.40;;;;;;4997843;28;20037;-63
2021/07/26 08:49:13;;;;;;;4.88;3.38;;;27.00;63.10;;;;;;4998326;28;20041;-63
2021/07/26 08:51:42;;;;;;;2.60;2.40;;;26.80;63.60;;;;;;4995205;28;20073;-64
2021/07/26 08:54:10;;;;;;;5.65;3.00;;;26.60;64.20;;;;;;4998024;28;20120;-64
2021/07/26 08:56:37;;;;;;;3.78;2.72;;;26.60;64.20;;;;;;4995786;28;20046;-64
2021/07/26 08:59:02;;;;;;;6.95;3.30;;;26.50;64.20;;;;;;4997068;28;20025;-64
2021/07/26 09:01:30;;;;;;;5.65;3.08;;;26.30;64.10;;;;;;4996501;28;20046;-64
2021/07/26 09:03:56;;;;;;;4.28;2.45;;;26.20;64.30;;;;;;4995291;28;20067;-64
2021/07/26 09:06:24;;;;;;;4.53;2.88;;;26.20;65.50;;;;;;4981777;28;20038;-64
2021/07/26 09:08:52;;;;;;;4.70;2.30;;;26.30;64.90;;;;;;4997822;28;20057;-64
2021/07/26 09:11:18;;;;;;;7.93;3.35;;;26.50;65.10;;;;;;4997474;28;20038;-64
2021/07/26 09:13:47;;;;;;;5.68;3.78;;;26.80;65.70;;;;;;4997897;28;20054;-63
2021/07/26 09:16:20;;;;;;;6.22;4.18;;;26.80;64.80;;;;;;4997051;28;20038;-62
2021/07/26 09:18:59;;;;;;;10.75;3.40;;;26.80;64.20;;;;;;4994937;28;20034;-62
2021/07/26 09:21:51;;;;;;;4.95;3.10;;;26.80;64.00;;;;;;4996420;28;20446;-62
2021/07/26 09:24:29;;;;;;;6.82;4.07;;;26.90;64.60;;;;;;4982333;28;20481;-62
2021/07/26 09:27:08;;;;;;;9.93;4.05;;;26.80;64.40;;;;;;4981070;28;20042;-62
2021/07/26 09:29:34;;;;;;;8.25;3.72;;;26.90;64.60;;;;;;4998120;28;20120;-62
2021/07/26 09:32:05;;;;;;;7.15;4.50;;;26.70;63.90;;;;;;4996950;28;20082;-62
2021/07/26 09:34:36;;;;;;;6.72;4.18;;;26.70;64.50;;;;;;4997064;28;20049;-62
2021/07/26 09:37:15;;;;;;;7.75;4.43;;;26.70;65.10;;;;;;4996810;28;20053;-62
2021/07/26 09:39:40;;;;;;;6.50;5.30;;;26.80;65.20;;;;;;4995788;28;20053;-63
2021/07/26 09:42:26;;;;;;;9.45;4.68;;;26.90;65.00;;;;;;4994776;28;20417;-62
2021/07/26 09:44:51;;;;;;;7.00;3.80;;;26.90;64.10;;;;;;4997348;28;20088;-62
2021/07/26 09:47:19;;;;;;;7.00;3.90;;;26.70;63.10;;;;;;4997111;28;20038;-62
2021/07/26 09:49:44;;;;;;;7.97;3.60;;;26.70;62.60;;;;;;4997960;28;20045;-62
2021/07/26 09:52:11;;;;;;;5.70;3.00;;;26.60;62.80;;;;;;4996109;28;20030;-62
2021/07/26 09:54:44;;;;;;;7.78;4.00;;;26.50;63.20;;;;;;4997523;28;20048;-62
2021/07/26 09:57:23;;;;;;;5.93;3.00;;;26.50;62.80;;;;;;4996649;28;20101;-62
2021/07/26 09:59:50;;;;;;;5.82;3.40;;;26.50;63.40;;;;;;4997016;28;20158;-62
2021/07/26 10:02:23;;;;;;;5.15;2.50;;;26.60;62.50;;;;;;4997230;28;20057;-63
2021/07/26 10:04:49;;;;;;;6.57;2.88;;;26.60;62.80;;;;;;4979608;28;20042;-63
2021/07/26 10:07:16;;;;;;;8.73;2.88;;;26.60;63.70;;;;;;4996110;28;20165;-63
2021/07/26 10:09:44;;;;;;;4.25;2.63;;;26.60;63.00;;;;;;4999554;28;20030;-63
2021/07/26 10:12:15;;;;;;;4.13;2.50;;;26.60;61.60;;;;;;5001370;28;20417;-61
2021/07/26 10:14:42;;;;;;;5.30;2.80;;;26.50;61.80;;;;;;5001321;28;20041;-63
2021/07/26 10:17:08;;;;;;;4.95;2.97;;;26.30;61.90;;;;;;5001224;28;20037;-63
2021/07/26 10:19:35;;;;;;;4.25;2.35;;;26.20;62.10;;;;;;5001054;28;20137;-61
2021/07/26 10:22:03;;;;;;;4.13;2.40;;;26.30;61.90;;;;;;5000218;28;20569;-63
2021/07/26 10:24:50;;;;;;;3.22;2.75;;;26.40;63.00;;;;;;4997454;28;20061;-63
2021/07/26 10:27:31;;;;;;;3.78;2.75;;;26.40;63.70;;;;;;5000091;28;20117;-63
2021/07/26 10:29:59;;;;;;;5.57;2.92;;;26.60;64.10;;;;;;5001243;28;20049;-63
2021/07/26 10:32:32;;;;;;;3.72;2.60;;;26.70;64.20;;;;;;5000724;28;20117;-63
2021/07/26 10:35:00;;;;;;;4.60;2.95;;;26.70;63.60;;;;;;4999219;28;20598;-63
2021/07/26 10:37:52;;;;;;;4.43;2.95;;;26.80;64.00;;;;;;5000047;28;20042;-65
2021/07/26 10:40:27;;;;;;;6.93;2.90;;;26.80;63.00;;;;;;4996366;28;20112;-61
2021/07/26 10:42:54;;;;;;;12.70;3.13;;;26.40;63.70;;;;;;4999217;28;20389;-63
2021/07/26 10:45:45;;;;;;;3.40;2.30;;;26.20;64.70;;;;;;4998107;28;20039;-62
2021/07/26 10:48:28;;;;;;;4.97;3.22;;;26.10;65.10;;;;;;5000810;28;20103;-62
2021/07/26 10:50:55;;;;;;;6.07;3.50;;;26.10;66.00;;;;;;4999715;28;20067;-62
2021/07/26 10:53:36;;;;;;;10.05;3.25;;;26.20;65.60;;;;;;4998787;28;20045;-63
2021/07/26 10:56:11;;;;;;;8.07;3.63;;;26.20;66.00;;;;;;5000013;28;20513;-67
2021/07/26 10:58:42;;;;;;;6.30;3.20;;;25.90;65.10;;;;;;5000793;28;20029;-67
2021/07/26 11:01:20;;;;;;;5.25;3.17;;;25.80;66.30;;;;;;5000283;28;20031;-67
2021/07/26 11:03:48;;;;;;;6.78;3.10;;;25.90;66.60;;;;;;5000476;28;20060;-66
2021/07/26 11:06:39;;;;;;;4.75;2.88;;;25.90;66.80;;;;;;5000169;28;20037;-67
2021/07/26 11:09:24;;;;;;;5.78;3.50;;;25.70;66.70;;;;;;5000987;28;20037;-67
2021/07/26 11:11:53;;;;;;;7.80;3.90;;;25.70;66.70;;;;;;4999427;28;20041;-66
2021/07/26 11:14:20;;;;;;;4.15;2.85;;;25.50;66.30;;;;;;4999725;28;20045;-66
2021/07/26 11:16:52;;;;;;;4.50;2.97;;;25.40;66.10;;;;;;4999919;28;20038;-67
2021/07/26 11:19:44;;;;;;;5.07;2.80;;;25.50;66.70;;;;;;5000329;28;20030;-66
2021/07/26 11:22:16;;;;;;;4.43;2.65;;;25.70;65.90;;;;;;4995940;28;20054;-67
2021/07/26 11:24:46;;;;;;;5.97;2.90;;;25.70;64.70;;;;;;5000398;28;20068;-66
2021/07/26 11:27:36;;;;;;;3.67;2.78;;;25.60;65.00;;;;;;5000548;28;20045;-67
2021/07/26 11:30:02;;;;;;;5.18;2.88;;;25.50;65.60;;;;;;4989188;28;20053;-67
2021/07/26 11:32:28;;;;;;;3.65;2.20;;;25.60;66.50;;;;;;4999254;28;20060;-67
2021/07/26 11:34:59;;;;;;;6.30;2.28;;;25.70;65.80;;;;;;4988439;28;20504;-67
2021/07/26 11:37:30;;;;;;;3.15;2.20;;;25.90;64.00;;;;;;4999226;28;20089;-73
2021/07/26 11:39:58;;;;;;;3.65;2.35;;;25.80;63.50;;;;;;4999382;28;20046;-73
2021/07/26 11:42:34;;;;;;;3.70;2.80;;;25.80;63.90;;;;;;4998156;28;20039;-73
2021/07/26 11:45:02;;;;;;;5.78;2.33;;;25.70;64.10;;;;;;4999269;28;20044;-73
2021/07/26 11:47:35;;;;;;;4.40;2.40;;;25.70;64.40;;;;;;5000712;28;20386;-73
2021/07/26 11:50:03;;;;;;;3.30;1.95;;;25.90;64.60;;;;;;4998694;28;20037;-73
2021/07/26 11:52:29;;;;;;;4.28;2.80;;;25.90;62.10;;;;;;4998871;28;20046;-73
2021/07/26 11:54:55;;;;;;;3.40;1.90;;;26.00;62.20;;;;;;4987902;28;20049;-73
2021/07/26 11:57:21;;;;;;;4.80;2.78;;;26.10;62.80;;;;;;4999179;28;20104;-73
2021/07/26 11:59:49;;;;;;;4.47;2.50;;;26.30;63.00;;;;;;5000146;28;20038;-73
2021/07/26 12:02:21;;;;;;;3.88;2.58;;;26.20;62.60;;;;;;4997545;28;20045;-73
2021/07/26 12:04:48;;;;;;;4.10;2.55;;;26.00;62.20;;;;;;4999453;28;20041;-67
2021/07/26 12:07:14;;;;;;;4.10;2.53;;;25.80;62.90;;;;;;4999270;28;20409;-66
2021/07/26 12:09:49;;;;;;;3.70;2.20;;;25.80;63.20;;;;;;4998637;28;20050;-65
2021/07/26 12:12:16;;;;;;;4.18;2.30;;;25.80;62.30;;;;;;4998050;28;20044;-66
2021/07/26 12:14:43;;;;;;;4.15;2.00;;;25.80;62.20;;;;;;4999042;28;20041;-67
2021/07/26 12:17:11;;;;;;;5.18;2.25;;;25.90;62.10;;;;;;4999583;28;20434;-67
2021/07/26 12:19:40;;;;;;;4.65;2.60;;;25.90;62.90;;;;;;4997597;28;20516;-67
2021/07/26 12:22:39;;;;;;;3.00;2.40;;;25.70;63.70;;;;;;4998783;28;20559;-67
2021/07/26 12:25:26;;;;;;;5.78;2.95;;;25.80;63.80;;;;;;4984914;28;20423;-69
2021/07/26 12:28:02;;;;;;;4.13;2.28;;;25.90;65.00;;;;;;4997843;28;20121;-69
2021/07/26 12:30:54;;;;;;;4.00;2.08;;;25.90;63.40;;;;;;4997837;28;20062;-69
2021/07/26 12:33:27;;;;;;;3.17;2.20;;;26.00;60.40;;;;;;4994919;28;20127;-68
2021/07/26 12:36:10;;;;;;;2.92;2.10;;;26.10;61.60;;;;;;4986730;28;20049;-70
2021/07/26 12:38:36;;;;;;;4.40;2.25;;;26.20;60.90;;;;;;4999916;28;20042;-63
2021/07/26 12:41:04;;;;;;;3.45;2.20;;;26.10;60.50;;;;;;4997952;28;22303;-63
2021/07/26 12:43:31;;;;;;;3.83;2.03;;;26.10;61.20;;;;;;4998454;28;20030;-66